Hauptseite
METAR-TAF:

METAR-TAF

Flughäfen :

Koksijde, Belgien

Militärflugplatz Koksijde

Breite: 51-05N, Länge: 002-39E, Höhe: 4 m

Beobachtung

Neuester Wetterbericht von vor 26 Minuten, um 18:55 UTC
Wind 12 kt aus Ost/Nordost
Temperatur -2°C
Luftfeuchtigkeit 54%
Luftdruck 1028 hPa
Sichtweite 10 km oder mehr

METAR: EBFN 251855Z AUTO 06012KT 9999 NCD M02/M10 Q1028 BLU

Zeit: 20:21 (19:21 UTC)

Prognose

Neuester Wetterbericht von vor 3 Stunden und 40 Minuten, um 15:41 UTC
Gültige Prognose vom 25 um 19 UTC bis 26 um 07 UTC
Wind 16 kt aus Ost/Nordost
Sichtweite 10 km oder mehr
Aufgelockert bewölkt in der Höhe von 10000 ft

TAF: EBFN 251541Z 2519/2607 07016KT 9999 SCT100

Wetterbeobachtungen und Prognosen von mehr als 4000 Flughäfen (METAR und TAF Bericht).

Die verfügbaren Stationen werden durch gelbe und rote Markierungen auf der Karte dargestellt.

Führen Sie die Maus auf sie, um den Namen der Station zu sehen.

Darauf klicken, um die Beobachtung von Wetterbeobachtungen und Prognosen zu sehen.

Um die Karte zu ändern : klicken Sie auf den grünen Tasten mit einem schwarzen Kreuz Zum Vergrößern, auf den grünen Button mit einem Gedankenstrich zu verkleinern, oder auf die grünen Pfeile für benachbarte Karten.


METAR-TAF: